createdAt,value
2023-01-19T00:01:27.999Z,99830.0
2023-01-19T00:03:27.740Z,99840.0
2023-01-19T00:05:27.062Z,99840.0
2023-01-19T00:07:26.819Z,99830.0
2023-01-19T00:09:32.335Z,99840.0
2023-01-19T00:11:25.966Z,99840.0
2023-01-19T00:13:25.076Z,99840.0
2023-01-19T00:15:24.411Z,99840.0
2023-01-19T00:17:24.027Z,99840.0
2023-01-19T00:19:23.910Z,99840.0
2023-01-19T00:21:23.649Z,99840.0
2023-01-19T00:23:22.816Z,99840.0
2023-01-19T00:25:21.924Z,99840.0
2023-01-19T00:27:21.952Z,99840.0
2023-01-19T00:29:21.707Z,99850.0
2023-01-19T00:31:21.850Z,99840.0
2023-01-19T00:33:20.036Z,99850.0
2023-01-19T00:35:19.415Z,99850.0
2023-01-19T00:37:18.874Z,99850.0
2023-01-19T00:39:18.377Z,99850.0
2023-01-19T00:41:18.378Z,99850.0
2023-01-19T00:43:17.338Z,99850.0
2023-01-19T00:45:20.457Z,99850.0
2023-01-19T00:47:16.965Z,99860.0
2023-01-19T00:49:16.066Z,99860.0
2023-01-19T00:51:15.353Z,99860.0
2023-01-19T00:53:14.909Z,99860.0
2023-01-19T00:55:15.576Z,99860.0
2023-01-19T00:57:14.747Z,99860.0
2023-01-19T00:59:13.584Z,99870.0
2023-01-19T01:01:13.385Z,99860.0
2023-01-19T01:03:12.683Z,99870.0
2023-01-19T01:05:12.938Z,99870.0
2023-01-19T01:07:11.313Z,99860.0
2023-01-19T01:09:10.934Z,99860.0
2023-01-19T01:11:10.163Z,99870.0
2023-01-19T01:13:20.882Z,99870.0
2023-01-19T01:15:12.676Z,99870.0
2023-01-19T01:17:10.414Z,99890.0
2023-01-19T01:19:08.236Z,99890.0
2023-01-19T01:21:08.513Z,99890.0
2023-01-19T01:25:06.902Z,99890.0
2023-01-19T01:27:06.272Z,99890.0
2023-01-19T01:29:07.432Z,99890.0
2023-01-19T01:31:05.067Z,99900.0
2023-01-19T01:33:04.695Z,99900.0
2023-01-19T01:35:05.195Z,99900.0
2023-01-19T01:37:03.845Z,99910.0
2023-01-19T01:39:03.636Z,99910.0
2023-01-19T01:41:03.163Z,99910.0
2023-01-19T01:43:02.637Z,99910.0
2023-01-19T01:45:05.159Z,99910.0
2023-01-19T01:47:01.550Z,99910.0
2023-01-19T01:49:06.593Z,99920.0
2023-01-19T01:51:13.076Z,99910.0
2023-01-19T01:53:06.347Z,99920.0
2023-01-19T01:55:00.205Z,99920.0
2023-01-19T01:57:02.269Z,99920.0
2023-01-19T01:58:58.465Z,99920.0
2023-01-19T02:01:07.668Z,99920.0
2023-01-19T02:02:59.446Z,99920.0
2023-01-19T02:05:03.065Z,99920.0
2023-01-19T02:07:05.571Z,99920.0
2023-01-19T02:09:11.925Z,99920.0
2023-01-19T02:11:06.776Z,99930.0
2023-01-19T02:13:04.570Z,99930.0
2023-01-19T02:14:54.549Z,99930.0
2023-01-19T02:16:53.273Z,99930.0
2023-01-19T02:18:52.521Z,99930.0
2023-01-19T02:20:58.193Z,99920.0
2023-01-19T02:22:51.654Z,99930.0
2023-01-19T02:24:52.034Z,99930.0
2023-01-19T02:26:51.430Z,99930.0
2023-01-19T02:28:56.540Z,99930.0
2023-01-19T02:30:49.470Z,99930.0
2023-01-19T02:32:49.202Z,99930.0
2023-01-19T02:34:48.471Z,99940.0
2023-01-19T02:36:51.862Z,99940.0
2023-01-19T02:40:48.672Z,99940.0
2023-01-19T02:42:49.846Z,99950.0
2023-01-19T02:44:49.368Z,99950.0
2023-01-19T02:46:45.666Z,99940.0
2023-01-19T02:48:44.913Z,99950.0
2023-01-19T02:52:45.134Z,99950.0
2023-01-19T02:54:57.219Z,99960.0
2023-01-19T02:56:52.134Z,99960.0
2023-01-19T02:58:52.443Z,99960.0
2023-01-19T03:00:50.926Z,99960.0
2023-01-19T03:02:54.173Z,99960.0
2023-01-19T03:04:57.233Z,99960.0
2023-01-19T03:06:47.470Z,99970.0
2023-01-19T03:08:47.552Z,99960.0
2023-01-19T03:10:47.554Z,99950.0
2023-01-19T03:12:43.396Z,99950.0
2023-01-19T03:14:42.739Z,99950.0
2023-01-19T03:16:42.502Z,99960.0
2023-01-19T03:18:39.430Z,99960.0
2023-01-19T03:20:37.745Z,99970.0
2023-01-19T03:22:35.990Z,99970.0
2023-01-19T03:24:39.311Z,99970.0
2023-01-19T03:26:39.056Z,99980.0
2023-01-19T03:28:38.199Z,99980.0
2023-01-19T03:30:38.585Z,99980.0
2023-01-19T03:32:38.931Z,99970.0
2023-01-19T03:34:34.298Z,99980.0
2023-01-19T03:38:35.011Z,99980.0
2023-01-19T03:42:32.035Z,99980.0
2023-01-19T03:44:33.744Z,99990.0
2023-01-19T03:46:30.751Z,99990.0
2023-01-19T03:48:31.341Z,99980.0
2023-01-19T03:50:30.110Z,99990.0
2023-01-19T03:52:31.524Z,99990.0
2023-01-19T03:54:28.139Z,99990.0
2023-01-19T03:58:28.560Z,99990.0
2023-01-19T04:00:26.194Z,100000.0
2023-01-19T04:02:26.145Z,100000.0
2023-01-19T04:04:25.282Z,99990.0
2023-01-19T04:06:25.990Z,100000.0
2023-01-19T04:08:24.708Z,99990.0
2023-01-19T04:10:24.668Z,99990.0
2023-01-19T04:12:23.179Z,99990.0
2023-01-19T04:14:22.627Z,99990.0
2023-01-19T04:16:22.646Z,99990.0
2023-01-19T04:18:21.851Z,99990.0
2023-01-19T04:20:21.319Z,99990.0
2023-01-19T04:22:20.929Z,99990.0
2023-01-19T04:24:21.030Z,100000.0
2023-01-19T04:26:20.469Z,100000.0
2023-01-19T04:28:19.925Z,100000.0
2023-01-19T04:30:18.926Z,99990.0
2023-01-19T04:32:18.612Z,99990.0
2023-01-19T04:34:17.693Z,99990.0
2023-01-19T04:36:17.427Z,99990.0
2023-01-19T04:38:16.680Z,99990.0
2023-01-19T04:40:16.585Z,100000.0
2023-01-19T04:42:16.284Z,100000.0
2023-01-19T04:46:14.792Z,100000.0
2023-01-19T04:48:15.072Z,99990.0
2023-01-19T04:50:14.286Z,100000.0
2023-01-19T04:52:13.250Z,99990.0
2023-01-19T04:54:12.844Z,100000.0
2023-01-19T04:56:12.289Z,100000.0
2023-01-19T04:58:12.105Z,100000.0
2023-01-19T05:02:10.963Z,100010.0
2023-01-19T05:04:10.206Z,100020.0
2023-01-19T05:06:09.739Z,100020.0
2023-01-19T05:10:10.196Z,100020.0
2023-01-19T05:12:08.399Z,100010.0
2023-01-19T05:14:08.867Z,100010.0
2023-01-19T05:16:07.934Z,100010.0
2023-01-19T05:18:06.684Z,100010.0
2023-01-19T05:20:08.526Z,100010.0
2023-01-19T05:22:06.074Z,100010.0
2023-01-19T05:24:05.651Z,100010.0
2023-01-19T05:26:05.080Z,100010.0
2023-01-19T05:28:04.311Z,100020.0
2023-01-19T05:30:04.646Z,100020.0
2023-01-19T05:32:03.662Z,100020.0
2023-01-19T05:34:03.326Z,100020.0
2023-01-19T05:36:03.603Z,100030.0
2023-01-19T05:38:01.994Z,100030.0
2023-01-19T05:40:01.355Z,100030.0
2023-01-19T05:42:01.167Z,100040.0
2023-01-19T05:44:00.149Z,100040.0
2023-01-19T05:45:59.800Z,100040.0
2023-01-19T05:47:59.881Z,100040.0
2023-01-19T05:49:58.936Z,100040.0
2023-01-19T05:51:59.062Z,100030.0
2023-01-19T05:53:57.766Z,100030.0
2023-01-19T05:55:59.370Z,100040.0
2023-01-19T05:59:56.223Z,100030.0
2023-01-19T06:01:56.206Z,100040.0
2023-01-19T06:03:55.847Z,100040.0
2023-01-19T06:05:57.028Z,100040.0
2023-01-19T06:07:55.670Z,100040.0
2023-01-19T06:09:53.665Z,100040.0
2023-01-19T06:11:54.871Z,100040.0
2023-01-19T06:13:52.675Z,100040.0
2023-01-19T06:15:55.943Z,100050.0
2023-01-19T06:17:51.722Z,100040.0
2023-01-19T06:19:51.433Z,100040.0
2023-01-19T06:21:51.377Z,100040.0
2023-01-19T06:23:50.565Z,100030.0
2023-01-19T06:25:49.708Z,100040.0
2023-01-19T06:27:49.101Z,100050.0
2023-01-19T06:29:48.596Z,100040.0
2023-01-19T06:31:48.720Z,100050.0
2023-01-19T06:33:47.658Z,100050.0
2023-01-19T06:35:49.115Z,100050.0
2023-01-19T06:37:46.502Z,100050.0
2023-01-19T06:39:46.142Z,100060.0
2023-01-19T06:41:46.099Z,100060.0
2023-01-19T06:43:45.065Z,100060.0
2023-01-19T06:45:45.257Z,100070.0
2023-01-19T06:47:46.514Z,100070.0
2023-01-19T06:49:43.430Z,100070.0
2023-01-19T06:51:43.065Z,100070.0
2023-01-19T06:53:42.743Z,100080.0
2023-01-19T06:55:42.156Z,100080.0
2023-01-19T06:57:41.717Z,100090.0
2023-01-19T06:59:41.363Z,100080.0
2023-01-19T07:01:40.356Z,100090.0
2023-01-19T07:03:39.784Z,100100.0
2023-01-19T07:05:39.355Z,100090.0
2023-01-19T07:07:39.177Z,100100.0
2023-01-19T07:09:38.139Z,100100.0
2023-01-19T07:11:38.164Z,100100.0
2023-01-19T07:13:38.942Z,100110.0
2023-01-19T07:15:36.776Z,100110.0
2023-01-19T07:17:36.622Z,100110.0
2023-01-19T07:19:35.854Z,100120.0
2023-01-19T07:21:35.196Z,100120.0
2023-01-19T07:23:34.700Z,100120.0
2023-01-19T07:25:33.966Z,100120.0
2023-01-19T07:27:33.672Z,100120.0
2023-01-19T07:29:33.581Z,100120.0
2023-01-19T07:31:32.926Z,100130.0
2023-01-19T07:33:32.156Z,100130.0
2023-01-19T07:35:31.706Z,100140.0
2023-01-19T07:37:30.872Z,100140.0
2023-01-19T07:39:31.080Z,100140.0
2023-01-19T07:41:29.897Z,100140.0
2023-01-19T07:43:29.855Z,100150.0
2023-01-19T07:45:29.166Z,100140.0
2023-01-19T07:47:29.072Z,100150.0
2023-01-19T07:49:28.037Z,100150.0
2023-01-19T07:51:27.217Z,100160.0
2023-01-19T07:53:27.063Z,100160.0
2023-01-19T07:55:26.303Z,100160.0
2023-01-19T07:57:25.731Z,100160.0
2023-01-19T07:59:25.195Z,100170.0
2023-01-19T08:01:25.168Z,100170.0
2023-01-19T08:03:24.732Z,100170.0
2023-01-19T08:05:24.758Z,100170.0
2023-01-19T08:07:23.189Z,100170.0
2023-01-19T08:09:23.441Z,100170.0
2023-01-19T08:11:22.383Z,100180.0
2023-01-19T08:13:21.582Z,100180.0
2023-01-19T08:15:23.653Z,100180.0
2023-01-19T08:17:21.176Z,100180.0
2023-01-19T08:19:20.043Z,100190.0
2023-01-19T08:21:19.542Z,100190.0
2023-01-19T08:23:19.266Z,100190.0
2023-01-19T08:25:18.478Z,100190.0
2023-01-19T08:27:18.835Z,100200.0
2023-01-19T08:29:17.545Z,100190.0
2023-01-19T08:33:16.721Z,100210.0
2023-01-19T08:35:16.444Z,100210.0
2023-01-19T08:37:15.517Z,100210.0
2023-01-19T08:41:16.232Z,100210.0
2023-01-19T08:43:16.503Z,100220.0
2023-01-19T08:45:13.402Z,100230.0
2023-01-19T08:47:13.074Z,100220.0
2023-01-19T08:49:12.721Z,100230.0
2023-01-19T08:51:12.281Z,100220.0
2023-01-19T08:55:11.028Z,100230.0
2023-01-19T08:57:10.358Z,100230.0
2023-01-19T08:59:11.922Z,100230.0
2023-01-19T09:01:13.903Z,100220.0
2023-01-19T09:03:12.547Z,100230.0
2023-01-19T09:05:08.879Z,100230.0
2023-01-19T09:07:07.980Z,100230.0
2023-01-19T09:09:07.899Z,100240.0
2023-01-19T09:11:10.349Z,100230.0
2023-01-19T09:13:09.952Z,100240.0
2023-01-19T09:15:07.440Z,100250.0
2023-01-19T09:17:05.615Z,100260.0
2023-01-19T09:19:07.749Z,100260.0
2023-01-19T09:21:04.739Z,100260.0
2023-01-19T09:23:07.574Z,100260.0
2023-01-19T09:25:03.829Z,100260.0
2023-01-19T09:27:03.175Z,100260.0
2023-01-19T09:29:02.581Z,100270.0
2023-01-19T09:31:04.626Z,100270.0
2023-01-19T09:33:05.274Z,100260.0
2023-01-19T09:35:01.052Z,100260.0
2023-01-19T09:37:00.721Z,100260.0
2023-01-19T09:39:00.116Z,100260.0
2023-01-19T09:41:00.623Z,100260.0
2023-01-19T09:43:11.918Z,100270.0
2023-01-19T09:47:00.892Z,100270.0
2023-01-19T09:49:03.807Z,100270.0
2023-01-19T09:51:01.680Z,100270.0
2023-01-19T09:53:03.565Z,100270.0
2023-01-19T09:54:57.618Z,100280.0
2023-01-19T09:58:55.940Z,100270.0
2023-01-19T10:01:03.272Z,100270.0
2023-01-19T10:02:58.238Z,100270.0
2023-01-19T10:04:59.620Z,100280.0
2023-01-19T10:06:58.764Z,100280.0
2023-01-19T10:09:03.173Z,100280.0
2023-01-19T10:10:54.615Z,100280.0
2023-01-19T10:13:01.386Z,100280.0
2023-01-19T10:15:00.636Z,100290.0
2023-01-19T10:16:57.537Z,100280.0
2023-01-19T10:18:53.303Z,100280.0
2023-01-19T10:20:55.084Z,100280.0
2023-01-19T10:22:49.841Z,100280.0
2023-01-19T10:24:53.880Z,100280.0
2023-01-19T10:26:51.935Z,100290.0
2023-01-19T10:28:52.582Z,100280.0
2023-01-19T10:30:48.143Z,100280.0
2023-01-19T10:32:47.988Z,100290.0
2023-01-19T10:34:48.205Z,100290.0
2023-01-19T10:36:49.631Z,100290.0
2023-01-19T10:38:46.737Z,100290.0
2023-01-19T10:40:52.871Z,100280.0
2023-01-19T10:42:44.880Z,100290.0
2023-01-19T10:44:44.917Z,100290.0
2023-01-19T10:46:47.894Z,100290.0
2023-01-19T10:50:43.130Z,100280.0
2023-01-19T10:52:43.742Z,100290.0
2023-01-19T10:54:43.033Z,100290.0
2023-01-19T10:56:42.525Z,100290.0
2023-01-19T10:58:41.174Z,100290.0
2023-01-19T11:00:42.140Z,100280.0
2023-01-19T11:02:49.975Z,100290.0
2023-01-19T11:04:41.182Z,100290.0
2023-01-19T11:06:39.156Z,100290.0
2023-01-19T11:08:38.796Z,100280.0
2023-01-19T11:10:38.535Z,100280.0
2023-01-19T11:12:40.514Z,100290.0
2023-01-19T11:14:37.826Z,100290.0
2023-01-19T11:16:39.096Z,100290.0
2023-01-19T11:18:38.960Z,100290.0
2023-01-19T11:20:47.477Z,100290.0
2023-01-19T11:22:35.456Z,100290.0
2023-01-19T11:24:37.215Z,100290.0
2023-01-19T11:26:41.074Z,100290.0
2023-01-19T11:28:37.119Z,100290.0
2023-01-19T11:30:34.343Z,100290.0
2023-01-19T11:32:35.983Z,100290.0
2023-01-19T11:34:34.047Z,100290.0
2023-01-19T11:36:34.380Z,100280.0
2023-01-19T11:38:40.039Z,100290.0
2023-01-19T11:40:33.232Z,100280.0
2023-01-19T11:42:33.647Z,100280.0
2023-01-19T11:46:33.038Z,100280.0
2023-01-19T11:48:35.073Z,100280.0
2023-01-19T11:50:34.126Z,100270.0
2023-01-19T11:52:34.174Z,100270.0
2023-01-19T11:54:34.533Z,100270.0
2023-01-19T11:56:29.295Z,100270.0
2023-01-19T11:58:26.841Z,100270.0
2023-01-19T12:00:34.882Z,100270.0
2023-01-19T12:02:28.353Z,100270.0
2023-01-19T12:04:28.812Z,100260.0
2023-01-19T12:06:29.907Z,100260.0
2023-01-19T12:08:40.012Z,100260.0
2023-01-19T12:10:27.386Z,100260.0
2023-01-19T12:12:29.102Z,100260.0
2023-01-19T12:14:27.832Z,100260.0
2023-01-19T12:16:27.611Z,100260.0
2023-01-19T12:18:25.970Z,100250.0
2023-01-19T12:20:30.099Z,100250.0
2023-01-19T12:22:23.061Z,100250.0
2023-01-19T12:26:27.759Z,100250.0
2023-01-19T12:28:26.719Z,100250.0
2023-01-19T12:30:22.942Z,100250.0
2023-01-19T12:32:28.953Z,100240.0
2023-01-19T12:34:35.868Z,100240.0
2023-01-19T12:36:34.877Z,100240.0
2023-01-19T12:38:31.750Z,100240.0
2023-01-19T12:40:23.433Z,100240.0
2023-01-19T12:42:17.105Z,100240.0
2023-01-19T12:44:23.318Z,100240.0
2023-01-19T12:46:19.374Z,100240.0
2023-01-19T12:48:24.289Z,100240.0
2023-01-19T12:50:18.605Z,100240.0
2023-01-19T12:52:22.470Z,100240.0
2023-01-19T12:54:27.818Z,100240.0
2023-01-19T12:56:13.736Z,100240.0
2023-01-19T12:58:17.537Z,100240.0
2023-01-19T13:00:27.947Z,100240.0
2023-01-19T13:02:32.738Z,100240.0
2023-01-19T13:06:11.606Z,100240.0
2023-01-19T13:08:12.692Z,100230.0
2023-01-19T13:10:29.766Z,100230.0
2023-01-19T13:12:10.595Z,100240.0
2023-01-19T13:14:28.901Z,100230.0
2023-01-19T13:16:28.361Z,100230.0
2023-01-19T13:18:08.871Z,100220.0
2023-01-19T13:20:21.986Z,100220.0
2023-01-19T13:22:27.441Z,100220.0
2023-01-19T13:24:08.333Z,100220.0
2023-01-19T13:26:13.769Z,100220.0
2023-01-19T13:28:09.314Z,100220.0
2023-01-19T13:30:11.333Z,100220.0
2023-01-19T13:32:14.871Z,100220.0
2023-01-19T13:34:12.637Z,100210.0
2023-01-19T13:36:17.721Z,100220.0
2023-01-19T13:38:04.552Z,100210.0
2023-01-19T13:40:04.565Z,100210.0
2023-01-19T13:42:05.870Z,100210.0
2023-01-19T13:44:07.319Z,100210.0
2023-01-19T13:46:02.820Z,100210.0
2023-01-19T13:48:05.492Z,100210.0
2023-01-19T13:50:01.254Z,100210.0
2023-01-19T13:52:12.299Z,100210.0
2023-01-19T13:54:00.724Z,100210.0
2023-01-19T13:56:15.683Z,100210.0
2023-01-19T14:00:03.511Z,100210.0
2023-01-19T14:02:11.001Z,100210.0
2023-01-19T14:03:58.988Z,100220.0
2023-01-19T14:05:57.581Z,100210.0
2023-01-19T14:10:05.441Z,100210.0
2023-01-19T14:12:06.441Z,100220.0
2023-01-19T14:13:55.396Z,100220.0
2023-01-19T14:15:57.569Z,100210.0
2023-01-19T14:18:14.317Z,100210.0
2023-01-19T14:19:56.530Z,100220.0
2023-01-19T14:22:00.456Z,100210.0
2023-01-19T14:24:03.884Z,100220.0
2023-01-19T14:25:52.855Z,100220.0
2023-01-19T14:28:12.078Z,100220.0
2023-01-19T14:29:53.925Z,100220.0
2023-01-19T14:32:02.446Z,100220.0
2023-01-19T14:33:53.974Z,100220.0
2023-01-19T14:35:50.627Z,100220.0
2023-01-19T14:39:52.417Z,100210.0
2023-01-19T14:43:49.253Z,100210.0
2023-01-19T14:45:48.589Z,100210.0
2023-01-19T14:47:54.488Z,100200.0
2023-01-19T14:49:47.487Z,100210.0
2023-01-19T14:51:48.780Z,100200.0
2023-01-19T14:53:50.913Z,100200.0
2023-01-19T14:55:49.387Z,100210.0
2023-01-19T14:57:46.040Z,100210.0
2023-01-19T14:59:48.609Z,100210.0
2023-01-19T15:01:44.996Z,100210.0
2023-01-19T15:03:45.605Z,100210.0
2023-01-19T15:05:46.235Z,100210.0
2023-01-19T15:07:46.188Z,100210.0
2023-01-19T15:09:43.264Z,100210.0
2023-01-19T15:11:46.380Z,100210.0
2023-01-19T15:13:43.510Z,100210.0
2023-01-19T15:19:40.908Z,100210.0
2023-01-19T15:21:41.317Z,100210.0
2023-01-19T15:23:40.352Z,100220.0
2023-01-19T15:25:39.366Z,100220.0
2023-01-19T15:27:39.048Z,100220.0
2023-01-19T15:29:39.323Z,100220.0
2023-01-19T15:31:38.295Z,100220.0
2023-01-19T15:33:37.781Z,100220.0
2023-01-19T15:35:37.770Z,100220.0
2023-01-19T15:37:36.606Z,100220.0
2023-01-19T15:39:36.331Z,100230.0
2023-01-19T15:41:37.902Z,100230.0
2023-01-19T15:43:35.406Z,100230.0
2023-01-19T15:45:36.899Z,100240.0
2023-01-19T15:47:34.402Z,100240.0
2023-01-19T15:49:33.888Z,100230.0
2023-01-19T15:51:33.491Z,100240.0
2023-01-19T15:53:33.693Z,100240.0
2023-01-19T15:55:33.147Z,100250.0
2023-01-19T15:57:34.115Z,100250.0
2023-01-19T15:59:31.610Z,100250.0
2023-01-19T16:01:33.308Z,100250.0
2023-01-19T16:03:30.775Z,100250.0
2023-01-19T16:05:42.516Z,100250.0
2023-01-19T16:07:29.934Z,100250.0
2023-01-19T16:09:29.269Z,100260.0
2023-01-19T16:11:31.635Z,100260.0
2023-01-19T16:13:30.075Z,100260.0
2023-01-19T16:15:28.002Z,100260.0
2023-01-19T16:17:27.748Z,100270.0
2023-01-19T16:19:27.095Z,100270.0
2023-01-19T16:21:26.760Z,100270.0
2023-01-19T16:23:26.324Z,100270.0
2023-01-19T16:25:27.648Z,100270.0
2023-01-19T16:27:27.021Z,100280.0
2023-01-19T16:29:25.496Z,100280.0
2023-01-19T16:31:24.958Z,100280.0
2023-01-19T16:33:23.712Z,100280.0
2023-01-19T16:35:23.299Z,100280.0
2023-01-19T16:37:22.745Z,100280.0
2023-01-19T16:39:22.327Z,100290.0
2023-01-19T16:41:21.983Z,100290.0
2023-01-19T16:43:21.432Z,100290.0
2023-01-19T16:45:20.977Z,100300.0
2023-01-19T16:47:20.809Z,100300.0
2023-01-19T16:49:21.908Z,100300.0
2023-01-19T16:51:19.621Z,100300.0
2023-01-19T16:53:18.892Z,100300.0
2023-01-19T16:55:18.539Z,100300.0
2023-01-19T16:57:17.951Z,100300.0
2023-01-19T16:59:18.170Z,100310.0
2023-01-19T17:03:16.746Z,100310.0
2023-01-19T17:05:16.264Z,100310.0
2023-01-19T17:07:18.882Z,100310.0
2023-01-19T17:09:15.879Z,100320.0
2023-01-19T17:11:19.844Z,100320.0
2023-01-19T17:13:14.074Z,100320.0
2023-01-19T17:15:14.040Z,100320.0
2023-01-19T17:17:13.085Z,100310.0
2023-01-19T17:19:15.729Z,100310.0
2023-01-19T17:21:13.261Z,100310.0
2023-01-19T17:25:11.461Z,100320.0
2023-01-19T17:27:11.419Z,100320.0
2023-01-19T17:29:10.538Z,100330.0
2023-01-19T17:31:12.222Z,100330.0
2023-01-19T17:33:09.212Z,100330.0
2023-01-19T17:35:09.156Z,100340.0
2023-01-19T17:37:08.204Z,100340.0
2023-01-19T17:39:13.213Z,100340.0
2023-01-19T17:41:11.918Z,100340.0
2023-01-19T17:43:07.097Z,100350.0
2023-01-19T17:45:07.728Z,100350.0
2023-01-19T17:47:05.648Z,100350.0
2023-01-19T17:49:06.731Z,100350.0
2023-01-19T17:51:07.225Z,100350.0
2023-01-19T17:53:04.677Z,100350.0
2023-01-19T17:55:04.509Z,100350.0
2023-01-19T17:57:03.107Z,100350.0
2023-01-19T17:59:04.455Z,100360.0
2023-01-19T18:01:07.409Z,100360.0
2023-01-19T18:03:02.250Z,100360.0
2023-01-19T18:05:02.118Z,100360.0
2023-01-19T18:07:00.948Z,100360.0
2023-01-19T18:09:01.330Z,100360.0
2023-01-19T18:11:01.106Z,100360.0
2023-01-19T18:12:59.050Z,100370.0
2023-01-19T18:14:58.635Z,100370.0
2023-01-19T18:16:58.130Z,100370.0
2023-01-19T18:18:57.797Z,100370.0
2023-01-19T18:20:58.617Z,100370.0
2023-01-19T18:22:57.114Z,100370.0
2023-01-19T18:24:57.369Z,100360.0
2023-01-19T18:26:55.904Z,100360.0
2023-01-19T18:28:56.078Z,100360.0
2023-01-19T18:30:54.932Z,100360.0
2023-01-19T18:32:53.960Z,100360.0
2023-01-19T18:36:53.835Z,100370.0
2023-01-19T18:38:52.655Z,100360.0
2023-01-19T18:40:59.731Z,100370.0
2023-01-19T18:42:51.479Z,100360.0
2023-01-19T18:44:50.950Z,100370.0
2023-01-19T18:46:51.160Z,100370.0
2023-01-19T18:50:49.580Z,100360.0
2023-01-19T18:52:50.416Z,100370.0
2023-01-19T18:54:48.882Z,100370.0
2023-01-19T18:56:49.122Z,100370.0
2023-01-19T18:58:47.252Z,100370.0
2023-01-19T19:00:47.638Z,100370.0
2023-01-19T19:02:46.188Z,100370.0
2023-01-19T19:04:45.791Z,100370.0
2023-01-19T19:06:45.133Z,100370.0
2023-01-19T19:10:44.483Z,100370.0
2023-01-19T19:12:43.559Z,100380.0
2023-01-19T19:14:42.976Z,100390.0
2023-01-19T19:16:42.644Z,100390.0
2023-01-19T19:18:42.103Z,100390.0
2023-01-19T19:22:41.565Z,100390.0
2023-01-19T19:24:40.529Z,100390.0
2023-01-19T19:26:41.197Z,100390.0
2023-01-19T19:28:39.871Z,100390.0
2023-01-19T19:30:40.161Z,100390.0
2023-01-19T19:32:38.526Z,100390.0
2023-01-19T19:34:38.089Z,100390.0
2023-01-19T19:38:38.450Z,100400.0
2023-01-19T19:40:36.979Z,100400.0
2023-01-19T19:42:36.111Z,100400.0
2023-01-19T19:44:35.159Z,100410.0
2023-01-19T19:46:34.719Z,100410.0
2023-01-19T19:48:34.972Z,100410.0
2023-01-19T19:50:33.885Z,100410.0
2023-01-19T19:52:37.073Z,100410.0
2023-01-19T19:54:32.706Z,100410.0
2023-01-19T19:56:33.434Z,100410.0
2023-01-19T19:58:32.036Z,100410.0
2023-01-19T20:00:31.065Z,100410.0
2023-01-19T20:02:31.015Z,100420.0
2023-01-19T20:04:29.990Z,100430.0
2023-01-19T20:06:29.360Z,100430.0
2023-01-19T20:08:29.017Z,100440.0
2023-01-19T20:10:29.103Z,100440.0
2023-01-19T20:12:28.162Z,100440.0
2023-01-19T20:14:27.651Z,100440.0
2023-01-19T20:16:26.986Z,100450.0
2023-01-19T20:18:26.330Z,100440.0
2023-01-19T20:20:26.689Z,100450.0
2023-01-19T20:22:24.995Z,100450.0
2023-01-19T20:24:24.503Z,100460.0
2023-01-19T20:26:26.894Z,100460.0
2023-01-19T20:28:24.107Z,100450.0
2023-01-19T20:30:23.251Z,100470.0
2023-01-19T20:32:23.138Z,100470.0
2023-01-19T20:34:25.217Z,100470.0
2023-01-19T20:36:23.316Z,100470.0
2023-01-19T20:38:20.830Z,100470.0
2023-01-19T20:40:20.644Z,100470.0
2023-01-19T20:42:19.861Z,100480.0
2023-01-19T20:44:22.203Z,100480.0
2023-01-19T20:46:19.055Z,100490.0
2023-01-19T20:48:18.712Z,100490.0
2023-01-19T20:50:18.248Z,100490.0
2023-01-19T20:52:17.485Z,100490.0
2023-01-19T20:54:18.592Z,100490.0
2023-01-19T20:56:16.373Z,100500.0
2023-01-19T20:58:15.740Z,100500.0
2023-01-19T21:00:15.359Z,100510.0
2023-01-19T21:02:15.814Z,100520.0
2023-01-19T21:04:15.035Z,100530.0
2023-01-19T21:06:15.395Z,100530.0
2023-01-19T21:08:13.998Z,100530.0
2023-01-19T21:10:12.917Z,100540.0
2023-01-19T21:12:14.196Z,100540.0
2023-01-19T21:14:11.651Z,100540.0
2023-01-19T21:16:11.596Z,100540.0
2023-01-19T21:18:10.582Z,100540.0
2023-01-19T21:22:09.555Z,100540.0
2023-01-19T21:24:09.896Z,100550.0
2023-01-19T21:26:10.296Z,100550.0
2023-01-19T21:28:07.996Z,100550.0
2023-01-19T21:30:08.350Z,100550.0
2023-01-19T21:32:07.166Z,100560.0
2023-01-19T21:34:06.388Z,100560.0
2023-01-19T21:36:07.248Z,100570.0
2023-01-19T21:38:05.731Z,100570.0
2023-01-19T21:40:05.826Z,100580.0
2023-01-19T21:42:04.708Z,100590.0
2023-01-19T21:44:04.407Z,100600.0
2023-01-19T21:46:13.423Z,100610.0
2023-01-19T21:48:03.036Z,100610.0
2023-01-19T21:50:03.311Z,100610.0
2023-01-19T21:52:01.707Z,100610.0
2023-01-19T21:54:02.037Z,100610.0
2023-01-19T21:56:00.785Z,100620.0
2023-01-19T21:58:00.959Z,100620.0
2023-01-19T21:59:59.941Z,100620.0
2023-01-19T22:01:59.347Z,100620.0
2023-01-19T22:06:02.591Z,100620.0
2023-01-19T22:07:57.502Z,100620.0
2023-01-19T22:09:56.931Z,100610.0
2023-01-19T22:11:56.399Z,100620.0
2023-01-19T22:13:58.588Z,100630.0
2023-01-19T22:15:58.800Z,100640.0
2023-01-19T22:17:55.318Z,100630.0
2023-01-19T22:19:55.052Z,100640.0
2023-01-19T22:21:53.761Z,100640.0
2023-01-19T22:23:54.912Z,100650.0
2023-01-19T22:25:52.697Z,100650.0
2023-01-19T22:27:52.456Z,100650.0
2023-01-19T22:29:52.218Z,100650.0
2023-01-19T22:31:52.380Z,100650.0
2023-01-19T22:33:51.925Z,100650.0
2023-01-19T22:35:50.087Z,100650.0
2023-01-19T22:37:49.542Z,100660.0
2023-01-19T22:41:48.741Z,100670.0
2023-01-19T22:45:47.555Z,100670.0
2023-01-19T22:47:47.379Z,100680.0
2023-01-19T22:49:46.603Z,100680.0
2023-01-19T22:51:46.312Z,100690.0
2023-01-19T22:53:46.131Z,100690.0
2023-01-19T22:55:44.981Z,100690.0
2023-01-19T22:57:44.573Z,100690.0
2023-01-19T22:59:43.954Z,100690.0
2023-01-19T23:01:43.963Z,100690.0
2023-01-19T23:03:43.340Z,100690.0
2023-01-19T23:05:42.746Z,100690.0
2023-01-19T23:07:41.944Z,100690.0
2023-01-19T23:09:41.457Z,100700.0
2023-01-19T23:11:42.860Z,100700.0
2023-01-19T23:13:40.788Z,100700.0
2023-01-19T23:15:39.891Z,100700.0
2023-01-19T23:17:40.734Z,100700.0
2023-01-19T23:19:38.839Z,100690.0
2023-01-19T23:21:39.534Z,100690.0
2023-01-19T23:23:38.637Z,100690.0
2023-01-19T23:25:37.297Z,100690.0
2023-01-19T23:27:36.726Z,100690.0
2023-01-19T23:29:36.352Z,100680.0
2023-01-19T23:31:37.845Z,100690.0
2023-01-19T23:33:35.048Z,100690.0
2023-01-19T23:35:34.599Z,100690.0
2023-01-19T23:37:34.192Z,100690.0
2023-01-19T23:39:34.033Z,100690.0
2023-01-19T23:41:33.851Z,100690.0
2023-01-19T23:43:33.361Z,100690.0
2023-01-19T23:45:34.117Z,100700.0
2023-01-19T23:47:32.515Z,100700.0
2023-01-19T23:49:31.008Z,100700.0
2023-01-19T23:51:32.105Z,100700.0
2023-01-19T23:53:29.880Z,100690.0
2023-01-19T23:55:29.494Z,100690.0
2023-01-19T23:57:29.762Z,100690.0
2023-01-19T23:59:28.331Z,100700.0
